sensor_id;sensor_type;location;lat;lon;timestamp;noise_LAeq;noise_LA_min;noise_LA_max;noise_LA01;noise_LA95
52872;Laerm;40124;52.198;9.902;2023-06-10T00:01:02;55.68;39.46;75.95;;
52872;Laerm;40124;52.198;9.902;2023-06-10T00:03:27;66.16;40.03;86.80;;
52872;Laerm;40124;52.198;9.902;2023-06-10T00:05:53;54.33;40.80;73.39;;
52872;Laerm;40124;52.198;9.902;2023-06-10T00:08:18;42.71;39.92;53.80;;
52872;Laerm;40124;52.198;9.902;2023-06-10T00:10:44;43.51;40.13;53.06;;
52872;Laerm;40124;52.198;9.902;2023-06-10T00:13:10;61.93;40.03;79.58;;
52872;Laerm;40124;52.198;9.902;2023-06-10T00:15:36;64.50;40.43;78.67;;
52872;Laerm;40124;52.198;9.902;2023-06-10T00:18:01;57.54;39.21;75.68;;
52872;Laerm;40124;52.198;9.902;2023-06-10T00:20:27;54.24;39.81;73.12;;
52872;Laerm;40124;52.198;9.902;2023-06-10T00:22:52;58.09;40.13;80.33;;
52872;Laerm;40124;52.198;9.902;2023-06-10T00:25:17;58.80;40.13;76.59;;
52872;Laerm;40124;52.198;9.902;2023-06-10T00:27:43;56.70;38.87;76.61;;
52872;Laerm;40124;52.198;9.902;2023-06-10T00:30:08;58.86;39.81;76.71;;
52872;Laerm;40124;52.198;9.902;2023-06-10T00:32:34;61.57;39.70;78.63;;
52872;Laerm;40124;52.198;9.902;2023-06-10T00:34:59;54.60;39.58;75.42;;
52872;Laerm;40124;52.198;9.902;2023-06-10T00:37:24;60.83;39.92;76.58;;
52872;Laerm;40124;52.198;9.902;2023-06-10T00:39:49;57.04;40.13;77.53;;
52872;Laerm;40124;52.198;9.902;2023-06-10T00:42:15;62.58;40.53;79.74;;
52872;Laerm;40124;52.198;9.902;2023-06-10T00:44:40;66.41;39.46;81.69;;
52872;Laerm;40124;52.198;9.902;2023-06-10T00:47:05;63.94;39.81;81.19;;
52872;Laerm;40124;52.198;9.902;2023-06-10T00:49:31;66.09;39.34;81.82;;
52872;Laerm;40124;52.198;9.902;2023-06-10T00:51:56;43.66;38.81;53.91;;
52872;Laerm;40124;52.198;9.902;2023-06-10T00:54:21;55.89;39.92;76.15;;
52872;Laerm;40124;52.198;9.902;2023-06-10T00:56:47;42.87;39.92;47.18;;
52872;Laerm;40124;52.198;9.902;2023-06-10T00:59:12;64.69;40.53;81.37;;
52872;Laerm;40124;52.198;9.902;2023-06-10T01:01:39;60.19;39.58;78.23;;
52872;Laerm;40124;52.198;9.902;2023-06-10T01:04:06;62.84;40.13;79.09;;
52872;Laerm;40124;52.198;9.902;2023-06-10T01:09:30;60.20;40.23;81.16;;
52872;Laerm;40124;52.198;9.902;2023-06-10T01:11:58;61.93;40.23;83.12;;
52872;Laerm;40124;52.198;9.902;2023-06-10T01:14:26;58.10;39.70;78.88;;
52872;Laerm;40124;52.198;9.902;2023-06-10T01:16:52;64.55;39.70;82.44;;
52872;Laerm;40124;52.198;9.902;2023-06-10T01:19:20;59.93;40.13;77.49;;
52872;Laerm;40124;52.198;9.902;2023-06-10T01:21:45;43.42;40.13;52.17;;
52872;Laerm;40124;52.198;9.902;2023-06-10T01:24:13;61.46;41.06;81.01;;
52872;Laerm;40124;52.198;9.902;2023-06-10T01:26:38;43.37;40.63;48.20;;
52872;Laerm;40124;52.198;9.902;2023-06-10T01:31:51;42.64;38.95;48.67;;
52872;Laerm;40124;52.198;9.902;2023-06-10T01:34:20;66.48;39.46;85.91;;
52872;Laerm;40124;52.198;9.902;2023-06-10T01:36:46;59.48;40.43;81.82;;
52872;Laerm;40124;52.198;9.902;2023-06-10T01:39:12;60.51;40.62;80.27;;
52872;Laerm;40124;52.198;9.902;2023-06-10T01:41:39;56.11;40.62;75.69;;
52872;Laerm;40124;52.198;9.902;2023-06-10T01:44:05;59.04;41.14;76.92;;
52872;Laerm;40124;52.198;9.902;2023-06-10T01:46:30;60.69;40.98;76.48;;
52872;Laerm;40124;52.198;9.902;2023-06-10T01:48:55;58.15;40.71;79.91;;
52872;Laerm;40124;52.198;9.902;2023-06-10T01:51:21;57.48;39.81;77.33;;
52872;Laerm;40124;52.198;9.902;2023-06-10T01:53:46;44.80;40.33;55.53;;
52872;Laerm;40124;52.198;9.902;2023-06-10T01:56:11;65.68;42.29;82.61;;
52872;Laerm;40124;52.198;9.902;2023-06-10T01:58:41;44.63;40.80;53.41;;
52872;Laerm;40124;52.198;9.902;2023-06-10T02:01:07;62.72;41.14;77.36;;
52872;Laerm;40124;52.198;9.902;2023-06-10T02:03:32;64.11;40.80;83.26;;
52872;Laerm;40124;52.198;9.902;2023-06-10T02:05:57;61.34;39.81;80.88;;
52872;Laerm;40124;52.198;9.902;2023-06-10T02:08:22;44.81;40.53;54.90;;
52872;Laerm;40124;52.198;9.902;2023-06-10T02:10:47;44.90;40.98;54.78;;
52872;Laerm;40124;52.198;9.902;2023-06-10T02:13:12;43.63;40.80;51.86;;
52872;Laerm;40124;52.198;9.902;2023-06-10T02:15:38;55.11;41.26;73.55;;
52872;Laerm;40124;52.198;9.902;2023-06-10T02:18:03;65.88;41.53;83.75;;
52872;Laerm;40124;52.198;9.902;2023-06-10T02:20:28;45.04;41.14;57.12;;
52872;Laerm;40124;52.198;9.902;2023-06-10T02:22:53;57.09;41.82;77.93;;
52872;Laerm;40124;52.198;9.902;2023-06-10T02:25:18;59.16;40.89;76.98;;
52872;Laerm;40124;52.198;9.902;2023-06-10T02:27:43;45.60;41.30;55.03;;
52872;Laerm;40124;52.198;9.902;2023-06-10T02:30:09;62.21;41.38;85.14;;
52872;Laerm;40124;52.198;9.902;2023-06-10T02:32:35;58.21;42.16;78.27;;
52872;Laerm;40124;52.198;9.902;2023-06-10T02:35:00;65.90;41.38;85.08;;
52872;Laerm;40124;52.198;9.902;2023-06-10T02:37:26;68.32;41.61;87.55;;
52872;Laerm;40124;52.198;9.902;2023-06-10T02:39:51;65.35;41.22;85.60;;
52872;Laerm;40124;52.198;9.902;2023-06-10T02:42:16;62.30;41.46;82.35;;
52872;Laerm;40124;52.198;9.902;2023-06-10T02:44:41;65.72;41.22;87.73;;
52872;Laerm;40124;52.198;9.902;2023-06-10T02:47:07;68.61;42.09;90.16;;
52872;Laerm;40124;52.198;9.902;2023-06-10T02:49:32;55.30;41.46;74.35;;
52872;Laerm;40124;52.198;9.902;2023-06-10T02:51:57;43.88;40.98;51.01;;
52872;Laerm;40124;52.198;9.902;2023-06-10T02:54:25;57.06;41.61;77.30;;
52872;Laerm;40124;52.198;9.902;2023-06-10T02:56:51;56.76;41.22;76.53;;
52872;Laerm;40124;52.198;9.902;2023-06-10T02:59:16;44.53;40.98;61.34;;
52872;Laerm;40124;52.198;9.902;2023-06-10T03:01:42;45.51;40.89;59.18;;
52872;Laerm;40124;52.198;9.902;2023-06-10T03:04:07;44.55;42.65;53.00;;
52872;Laerm;40124;52.198;9.902;2023-06-10T03:06:32;47.96;42.47;60.71;;
52872;Laerm;40124;52.198;9.902;2023-06-10T03:09:01;57.82;42.35;79.02;;
52872;Laerm;40124;52.198;9.902;2023-06-10T03:11:26;64.22;42.93;80.80;;
52872;Laerm;40124;52.198;9.902;2023-06-10T03:13:51;45.56;41.30;63.80;;
52872;Laerm;40124;52.198;9.902;2023-06-10T03:16:18;65.81;41.89;85.72;;
52872;Laerm;40124;52.198;9.902;2023-06-10T03:18:44;63.81;41.14;78.59;;
52872;Laerm;40124;52.198;9.902;2023-06-10T03:21:09;56.82;40.80;76.70;;
52872;Laerm;40124;52.198;9.902;2023-06-10T03:23:34;60.29;40.33;77.78;;
52872;Laerm;40124;52.198;9.902;2023-06-10T03:26:00;70.50;40.62;89.86;;
52872;Laerm;40124;52.198;9.902;2023-06-10T03:28:25;59.24;40.53;76.42;;
52872;Laerm;40124;52.198;9.902;2023-06-10T03:30:50;59.33;41.75;76.27;;
52872;Laerm;40124;52.198;9.902;2023-06-10T03:33:16;64.20;41.46;78.77;;
52872;Laerm;40124;52.198;9.902;2023-06-10T03:35:41;64.01;42.03;80.41;;
52872;Laerm;40124;52.198;9.902;2023-06-10T03:38:06;59.48;41.61;76.72;;
52872;Laerm;40124;52.198;9.902;2023-06-10T03:40:32;57.47;41.22;73.41;;
52872;Laerm;40124;52.198;9.902;2023-06-10T03:42:57;61.43;40.43;78.87;;
52872;Laerm;40124;52.198;9.902;2023-06-10T03:45:22;62.97;41.22;80.85;;
52872;Laerm;40124;52.198;9.902;2023-06-10T03:47:48;63.42;41.06;80.44;;
52872;Laerm;40124;52.198;9.902;2023-06-10T03:50:13;62.63;42.35;78.34;;
52872;Laerm;40124;52.198;9.902;2023-06-10T03:52:38;66.06;40.98;83.16;;
52872;Laerm;40124;52.198;9.902;2023-06-10T03:55:04;67.36;41.75;84.82;;
52872;Laerm;40124;52.198;9.902;2023-06-10T03:57:30;61.06;42.03;79.87;;
52872;Laerm;40124;52.198;9.902;2023-06-10T03:59:55;61.55;42.22;80.67;;
52872;Laerm;40124;52.198;9.902;2023-06-10T04:02:21;68.79;42.16;85.13;;
52872;Laerm;40124;52.198;9.902;2023-06-10T04:04:46;63.99;42.41;79.44;;
52872;Laerm;40124;52.198;9.902;2023-06-10T04:07:12;61.14;41.89;78.12;;
52872;Laerm;40124;52.198;9.902;2023-06-10T04:09:37;57.93;41.96;75.03;;
52872;Laerm;40124;52.198;9.902;2023-06-10T04:12:02;62.68;42.59;78.14;;
52872;Laerm;40124;52.198;9.902;2023-06-10T04:14:27;62.19;42.09;78.37;;
52872;Laerm;40124;52.198;9.902;2023-06-10T04:16:53;67.05;42.53;83.28;;
52872;Laerm;40124;52.198;9.902;2023-06-10T04:19:18;63.14;42.16;83.22;;
52872;Laerm;40124;52.198;9.902;2023-06-10T04:21:43;63.15;42.41;81.93;;
52872;Laerm;40124;52.198;9.902;2023-06-10T04:24:08;64.10;42.35;79.88;;
52872;Laerm;40124;52.198;9.902;2023-06-10T04:26:36;45.62;41.82;60.96;;
52872;Laerm;40124;52.198;9.902;2023-06-10T04:29:02;60.65;41.68;79.06;;
52872;Laerm;40124;52.198;9.902;2023-06-10T04:31:27;65.77;42.03;81.26;;
52872;Laerm;40124;52.198;9.902;2023-06-10T04:33:52;61.70;41.38;83.53;;
52872;Laerm;40124;52.198;9.902;2023-06-10T04:36:18;66.26;41.75;81.37;;
52872;Laerm;40124;52.198;9.902;2023-06-10T04:38:43;66.19;41.82;83.34;;
52872;Laerm;40124;52.198;9.902;2023-06-10T04:41:08;66.25;42.35;84.73;;
52872;Laerm;40124;52.198;9.902;2023-06-10T04:43:33;58.56;41.89;77.16;;
52872;Laerm;40124;52.198;9.902;2023-06-10T04:45:59;67.48;42.35;86.66;;
52872;Laerm;40124;52.198;9.902;2023-06-10T04:48:24;65.34;41.75;80.05;;
52872;Laerm;40124;52.198;9.902;2023-06-10T04:50:50;64.93;41.68;79.41;;
52872;Laerm;40124;52.198;9.902;2023-06-10T04:53:15;64.40;41.82;77.96;;
52872;Laerm;40124;52.198;9.902;2023-06-10T04:55:40;65.92;41.68;80.95;;
52872;Laerm;40124;52.198;9.902;2023-06-10T04:58:05;67.85;43.63;84.42;;
52872;Laerm;40124;52.198;9.902;2023-06-10T05:00:30;60.15;41.61;77.05;;
52872;Laerm;40124;52.198;9.902;2023-06-10T05:02:56;62.15;41.30;78.94;;
52872;Laerm;40124;52.198;9.902;2023-06-10T05:05:21;62.78;41.61;78.16;;
52872;Laerm;40124;52.198;9.902;2023-06-10T05:07:46;65.71;42.71;82.03;;
52872;Laerm;40124;52.198;9.902;2023-06-10T05:10:11;67.20;43.14;85.22;;
52872;Laerm;40124;52.198;9.902;2023-06-10T05:12:40;68.14;42.59;84.27;;
52872;Laerm;40124;52.198;9.902;2023-06-10T05:15:06;66.04;42.53;80.20;;
52872;Laerm;40124;52.198;9.902;2023-06-10T05:17:31;66.14;42.98;79.21;;
52872;Laerm;40124;52.198;9.902;2023-06-10T05:19:56;62.62;41.30;77.81;;
52872;Laerm;40124;52.198;9.902;2023-06-10T05:22:22;66.95;42.65;85.13;;
52872;Laerm;40124;52.198;9.902;2023-06-10T05:24:49;62.52;41.38;78.92;;
52872;Laerm;40124;52.198;9.902;2023-06-10T05:27:14;66.24;40.80;79.54;;
52872;Laerm;40124;52.198;9.902;2023-06-10T05:29:39;66.38;40.89;80.82;;
52872;Laerm;40124;52.198;9.902;2023-06-10T05:32:05;68.44;40.89;87.13;;
52872;Laerm;40124;52.198;9.902;2023-06-10T05:34:30;69.38;42.88;87.37;;
52872;Laerm;40124;52.198;9.902;2023-06-10T05:36:55;65.54;40.23;79.72;;
52872;Laerm;40124;52.198;9.902;2023-06-10T05:39:21;68.48;42.09;82.86;;
52872;Laerm;40124;52.198;9.902;2023-06-10T05:41:46;64.84;39.58;78.38;;
52872;Laerm;40124;52.198;9.902;2023-06-10T05:44:11;65.38;42.22;79.36;;
52872;Laerm;40124;52.198;9.902;2023-06-10T05:46:36;60.49;41.30;78.67;;
52872;Laerm;40124;52.198;9.902;2023-06-10T05:49:01;72.41;44.65;90.10;;
52872;Laerm;40124;52.198;9.902;2023-06-10T05:51:26;67.94;42.59;80.85;;
52872;Laerm;40124;52.198;9.902;2023-06-10T05:53:53;62.50;40.13;83.21;;
52872;Laerm;40124;52.198;9.902;2023-06-10T05:56:18;67.43;42.93;78.38;;
52872;Laerm;40124;52.198;9.902;2023-06-10T05:58:43;67.06;43.24;80.79;;
52872;Laerm;40124;52.198;9.902;2023-06-10T06:01:08;70.18;40.43;87.45;;
52872;Laerm;40124;52.198;9.902;2023-06-10T06:03:33;67.88;45.39;79.65;;
52872;Laerm;40124;52.198;9.902;2023-06-10T06:05:58;63.99;41.38;81.12;;
52872;Laerm;40124;52.198;9.902;2023-06-10T06:08:24;67.30;40.13;81.08;;
52872;Laerm;40124;52.198;9.902;2023-06-10T06:10:49;70.43;47.72;81.14;;
52872;Laerm;40124;52.198;9.902;2023-06-10T06:13:15;69.86;42.24;87.20;;
52872;Laerm;40124;52.198;9.902;2023-06-10T06:15:40;68.61;42.59;83.16;;
52872;Laerm;40124;52.198;9.902;2023-06-10T06:18:05;70.65;42.47;87.71;;
52872;Laerm;40124;52.198;9.902;2023-06-10T06:20:30;73.10;43.68;87.80;;
52872;Laerm;40124;52.198;9.902;2023-06-10T06:22:55;68.22;41.61;81.09;;
52872;Laerm;40124;52.198;9.902;2023-06-10T06:25:21;68.72;45.07;80.17;;
52872;Laerm;40124;52.198;9.902;2023-06-10T06:27:46;62.42;41.33;79.21;;
52872;Laerm;40124;52.198;9.902;2023-06-10T06:30:11;70.38;44.31;84.02;;
52872;Laerm;40124;52.198;9.902;2023-06-10T06:32:36;68.07;43.39;81.17;;
52872;Laerm;40124;52.198;9.902;2023-06-10T06:35:02;68.72;43.29;80.44;;
52872;Laerm;40124;52.198;9.902;2023-06-10T06:37:27;67.14;43.24;79.14;;
52872;Laerm;40124;52.198;9.902;2023-06-10T06:39:52;69.18;44.94;80.82;;
52872;Laerm;40124;52.198;9.902;2023-06-10T06:42:18;70.84;44.94;82.16;;
52872;Laerm;40124;52.198;9.902;2023-06-10T06:44:43;67.67;42.53;82.35;;
52872;Laerm;40124;52.198;9.902;2023-06-10T06:47:08;69.57;43.09;81.28;;
52872;Laerm;40124;52.198;9.902;2023-06-10T06:49:34;69.25;42.88;81.63;;
52872;Laerm;40124;52.198;9.902;2023-06-10T06:51:59;69.17;46.64;84.20;;
52872;Laerm;40124;52.198;9.902;2023-06-10T06:54:24;69.83;46.05;80.63;;
52872;Laerm;40124;52.198;9.902;2023-06-10T06:56:49;68.77;43.68;79.47;;
52872;Laerm;40124;52.198;9.902;2023-06-10T06:59:15;71.59;52.14;82.43;;
52872;Laerm;40124;52.198;9.902;2023-06-10T07:01:41;70.11;43.81;85.25;;
52872;Laerm;40124;52.198;9.902;2023-06-10T07:04:06;67.48;43.34;80.32;;
52872;Laerm;40124;52.198;9.902;2023-06-10T07:06:31;68.74;43.19;79.00;;
52872;Laerm;40124;52.198;9.902;2023-06-10T07:08:56;69.82;42.35;82.54;;
52872;Laerm;40124;52.198;9.902;2023-06-10T07:11:22;67.88;45.51;79.84;;
52872;Laerm;40124;52.198;9.902;2023-06-10T07:13:47;68.69;43.44;81.95;;
52872;Laerm;40124;52.198;9.902;2023-06-10T07:16:12;67.96;43.14;81.24;;
52872;Laerm;40124;52.198;9.902;2023-06-10T07:18:37;69.58;44.15;79.86;;
52872;Laerm;40124;52.198;9.902;2023-06-10T07:21:02;69.06;44.23;80.55;;
52872;Laerm;40124;52.198;9.902;2023-06-10T07:23:27;68.67;43.99;86.44;;
52872;Laerm;40124;52.198;9.902;2023-06-10T07:25:53;66.92;43.04;80.37;;
52872;Laerm;40124;52.198;9.902;2023-06-10T07:28:18;72.84;43.63;89.70;;
52872;Laerm;40124;52.198;9.902;2023-06-10T07:30:43;68.92;44.07;80.21;;
52872;Laerm;40124;52.198;9.902;2023-06-10T07:33:08;67.96;41.96;79.50;;
52872;Laerm;40124;52.198;9.902;2023-06-10T07:35:35;69.15;46.13;81.33;;
52872;Laerm;40124;52.198;9.902;2023-06-10T07:38:00;67.82;44.35;79.14;;
52872;Laerm;40124;52.198;9.902;2023-06-10T07:40:25;70.88;46.13;84.11;;
52872;Laerm;40124;52.198;9.902;2023-06-10T07:42:50;69.58;43.86;80.24;;
52872;Laerm;40124;52.198;9.902;2023-06-10T07:45:16;69.16;47.46;81.73;;
52872;Laerm;40124;52.198;9.902;2023-06-10T07:47:42;73.14;51.26;86.97;;
52872;Laerm;40124;52.198;9.902;2023-06-10T07:50:07;69.52;41.89;81.08;;
52872;Laerm;40124;52.198;9.902;2023-06-10T07:52:33;68.69;43.54;79.52;;
52872;Laerm;40124;52.198;9.902;2023-06-10T07:54:58;70.09;44.83;80.04;;
52872;Laerm;40124;52.198;9.902;2023-06-10T07:57:23;69.64;45.77;79.56;;
52872;Laerm;40124;52.198;9.902;2023-06-10T07:59:48;69.90;46.64;79.49;;
52872;Laerm;40124;52.198;9.902;2023-06-10T08:02:13;70.28;51.66;80.08;;
52872;Laerm;40124;52.198;9.902;2023-06-10T08:04:39;75.03;51.80;91.70;;
52872;Laerm;40124;52.198;9.902;2023-06-10T08:07:04;69.13;50.30;79.32;;
52872;Laerm;40124;52.198;9.902;2023-06-10T08:09:29;70.71;45.04;82.82;;
52872;Laerm;40124;52.198;9.902;2023-06-10T08:11:54;72.12;42.82;89.46;;
52872;Laerm;40124;52.198;9.902;2023-06-10T08:14:20;70.89;46.55;87.85;;
52872;Laerm;40124;52.198;9.902;2023-06-10T08:16:46;71.39;47.32;86.10;;
52872;Laerm;40124;52.198;9.902;2023-06-10T08:19:11;70.62;42.47;81.17;;
52872;Laerm;40124;52.198;9.902;2023-06-10T08:21:39;72.70;47.72;89.10;;
52872;Laerm;40124;52.198;9.902;2023-06-10T08:24:05;71.86;50.68;86.81;;
52872;Laerm;40124;52.198;9.902;2023-06-10T08:26:30;69.26;41.46;81.95;;
52872;Laerm;40124;52.198;9.902;2023-06-10T08:28:56;69.71;46.59;80.92;;
52872;Laerm;40124;52.198;9.902;2023-06-10T08:31:21;67.65;47.46;80.27;;
52872;Laerm;40124;52.198;9.902;2023-06-10T08:33:46;70.30;50.14;79.45;;
52872;Laerm;40124;52.198;9.902;2023-06-10T08:36:11;69.11;43.44;80.60;;
52872;Laerm;40124;52.198;9.902;2023-06-10T08:38:37;67.47;46.35;81.86;;
52872;Laerm;40124;52.198;9.902;2023-06-10T08:41:02;69.35;44.58;79.30;;
52872;Laerm;40124;52.198;9.902;2023-06-10T08:45:55;69.21;45.39;81.57;;
52872;Laerm;40124;52.198;9.902;2023-06-10T08:48:21;67.97;44.03;82.10;;
52872;Laerm;40124;52.198;9.902;2023-06-10T08:50:46;69.85;46.30;85.44;;
52872;Laerm;40124;52.198;9.902;2023-06-10T08:53:13;70.27;46.28;80.58;;
52872;Laerm;40124;52.198;9.902;2023-06-10T08:55:42;70.17;45.11;82.44;;
52872;Laerm;40124;52.198;9.902;2023-06-10T08:58:10;68.52;42.65;82.15;;
52872;Laerm;40124;52.198;9.902;2023-06-10T09:00:35;71.89;49.40;86.99;;
52872;Laerm;40124;52.198;9.902;2023-06-10T09:03:02;71.65;47.04;86.71;;
52872;Laerm;40124;52.198;9.902;2023-06-10T09:05:28;69.65;46.38;83.93;;
52872;Laerm;40124;52.198;9.902;2023-06-10T09:07:54;70.04;51.29;80.04;;
52872;Laerm;40124;52.198;9.902;2023-06-10T09:10:20;70.81;47.50;80.28;;
52872;Laerm;40124;52.198;9.902;2023-06-10T09:12:45;70.08;44.76;80.60;;
52872;Laerm;40124;52.198;9.902;2023-06-10T09:15:11;70.55;43.44;82.72;;
52872;Laerm;40124;52.198;9.902;2023-06-10T09:17:37;68.83;45.63;79.90;;
52872;Laerm;40124;52.198;9.902;2023-06-10T09:20:03;69.84;44.39;79.69;;
52872;Laerm;40124;52.198;9.902;2023-06-10T09:22:28;73.04;52.65;87.91;;
52872;Laerm;40124;52.198;9.902;2023-06-10T09:25:03;69.93;47.14;79.80;;
52872;Laerm;40124;52.198;9.902;2023-06-10T09:27:29;70.66;49.71;83.11;;
52872;Laerm;40124;52.198;9.902;2023-06-10T09:29:55;68.84;42.53;81.04;;
52872;Laerm;40124;52.198;9.902;2023-06-10T09:32:20;68.14;42.29;81.46;;
52872;Laerm;40124;52.198;9.902;2023-06-10T09:34:46;70.54;44.11;81.14;;
52872;Laerm;40124;52.198;9.902;2023-06-10T09:37:12;69.87;45.43;80.26;;
52872;Laerm;40124;52.198;9.902;2023-06-10T09:39:38;67.85;46.23;77.89;;
52872;Laerm;40124;52.198;9.902;2023-06-10T09:42:15;70.34;46.43;81.03;;
52872;Laerm;40124;52.198;9.902;2023-06-10T09:44:40;69.91;46.07;80.49;;
52872;Laerm;40124;52.198;9.902;2023-06-10T09:47:05;71.35;46.33;85.88;;
52872;Laerm;40124;52.198;9.902;2023-06-10T09:49:30;67.78;42.93;78.60;;
52872;Laerm;40124;52.198;9.902;2023-06-10T09:51:56;68.51;42.98;79.93;;
52872;Laerm;40124;52.198;9.902;2023-06-10T09:54:21;70.11;45.23;85.34;;
52872;Laerm;40124;52.198;9.902;2023-06-10T09:56:47;68.60;48.57;78.12;;
52872;Laerm;40124;52.198;9.902;2023-06-10T09:59:12;69.24;44.62;80.73;;
52872;Laerm;40124;52.198;9.902;2023-06-10T10:01:37;71.60;51.10;88.89;;
52872;Laerm;40124;52.198;9.902;2023-06-10T10:04:03;66.90;44.69;78.43;;
52872;Laerm;40124;52.198;9.902;2023-06-10T10:06:29;71.47;51.22;84.21;;
52872;Laerm;40124;52.198;9.902;2023-06-10T10:08:55;68.43;43.24;81.64;;
52872;Laerm;40124;52.198;9.902;2023-06-10T10:11:20;66.91;45.72;77.87;;
52872;Laerm;40124;52.198;9.902;2023-06-10T10:13:47;66.78;42.82;79.03;;
52872;Laerm;40124;52.198;9.902;2023-06-10T10:16:20;69.51;44.39;79.47;;
52872;Laerm;40124;52.198;9.902;2023-06-10T10:18:51;67.28;43.34;81.09;;
52872;Laerm;40124;52.198;9.902;2023-06-10T10:21:18;69.44;41.75;81.55;;
52872;Laerm;40124;52.198;9.902;2023-06-10T10:24:01;70.21;46.87;80.14;;
52872;Laerm;40124;52.198;9.902;2023-06-10T10:26:27;69.11;43.49;81.48;;
52872;Laerm;40124;52.198;9.902;2023-06-10T10:29:04;67.55;44.43;80.37;;
52872;Laerm;40124;52.198;9.902;2023-06-10T10:31:30;69.13;44.43;80.69;;
52872;Laerm;40124;52.198;9.902;2023-06-10T10:33:58;69.22;45.91;81.28;;
52872;Laerm;40124;52.198;9.902;2023-06-10T10:36:24;68.00;43.63;79.86;;
52872;Laerm;40124;52.198;9.902;2023-06-10T10:38:50;68.84;43.99;80.79;;
52872;Laerm;40124;52.198;9.902;2023-06-10T10:41:15;69.12;43.99;82.97;;
52872;Laerm;40124;52.198;9.902;2023-06-10T10:43:41;66.71;43.68;79.17;;
52872;Laerm;40124;52.198;9.902;2023-06-10T10:46:11;74.56;46.25;92.68;;
52872;Laerm;40124;52.198;9.902;2023-06-10T10:48:39;68.78;43.14;84.55;;
52872;Laerm;40124;52.198;9.902;2023-06-10T10:51:06;69.31;51.21;79.80;;
52872;Laerm;40124;52.198;9.902;2023-06-10T10:53:31;71.64;48.23;83.81;;
52872;Laerm;40124;52.198;9.902;2023-06-10T10:58:25;68.77;41.06;83.50;;
52872;Laerm;40124;52.198;9.902;2023-06-10T11:00:50;70.19;43.24;83.15;;
52872;Laerm;40124;52.198;9.902;2023-06-10T11:03:16;69.73;44.35;82.10;;
52872;Laerm;40124;52.198;9.902;2023-06-10T11:05:45;68.49;43.94;78.93;;
52872;Laerm;40124;52.198;9.902;2023-06-10T11:08:13;70.24;44.97;84.05;;
52872;Laerm;40124;52.198;9.902;2023-06-10T11:10:40;66.29;44.65;76.40;;
52872;Laerm;40124;52.198;9.902;2023-06-10T11:13:06;68.81;42.53;79.61;;
52872;Laerm;40124;52.198;9.902;2023-06-10T11:15:32;68.44;43.04;81.75;;
52872;Laerm;40124;52.198;9.902;2023-06-10T11:21:01;71.17;45.69;87.83;;
52872;Laerm;40124;52.198;9.902;2023-06-10T11:28:36;71.70;44.23;88.85;;
52872;Laerm;40124;52.198;9.902;2023-06-10T11:31:02;68.83;46.73;79.36;;
52872;Laerm;40124;52.198;9.902;2023-06-10T11:33:27;68.40;44.65;79.36;;
52872;Laerm;40124;52.198;9.902;2023-06-10T11:35:52;75.65;44.80;93.58;;
52872;Laerm;40124;52.198;9.902;2023-06-10T11:38:18;68.48;45.45;78.22;;
52872;Laerm;40124;52.198;9.902;2023-06-10T11:40:50;69.08;48.21;79.86;;
52872;Laerm;40124;52.198;9.902;2023-06-10T11:43:18;70.09;43.14;81.35;;
52872;Laerm;40124;52.198;9.902;2023-06-10T11:45:44;69.83;49.77;79.66;;
52872;Laerm;40124;52.198;9.902;2023-06-10T11:48:09;68.44;45.89;78.85;;
52872;Laerm;40124;52.198;9.902;2023-06-10T11:50:35;69.96;45.04;84.12;;
52872;Laerm;40124;52.198;9.902;2023-06-10T11:53:01;69.08;46.40;82.10;;
52872;Laerm;40124;52.198;9.902;2023-06-10T11:55:46;69.56;44.83;82.51;;
52872;Laerm;40124;52.198;9.902;2023-06-10T11:58:21;68.18;42.47;80.70;;
52872;Laerm;40124;52.198;9.902;2023-06-10T12:00:50;71.44;45.33;86.01;;
52872;Laerm;40124;52.198;9.902;2023-06-10T12:03:16;71.09;49.04;86.29;;
52872;Laerm;40124;52.198;9.902;2023-06-10T12:06:00;69.69;49.32;80.94;;
52872;Laerm;40124;52.198;9.902;2023-06-10T12:08:26;69.08;44.07;85.30;;
52872;Laerm;40124;52.198;9.902;2023-06-10T12:10:52;66.52;42.59;79.87;;
52872;Laerm;40124;52.198;9.902;2023-06-10T12:13:17;67.27;42.71;78.60;;
52872;Laerm;40124;52.198;9.902;2023-06-10T12:15:43;70.96;53.05;83.49;;
52872;Laerm;40124;52.198;9.902;2023-06-10T12:18:15;71.23;43.09;82.72;;
52872;Laerm;40124;52.198;9.902;2023-06-10T12:20:41;68.23;44.83;81.78;;
52872;Laerm;40124;52.198;9.902;2023-06-10T12:23:10;69.14;44.03;80.88;;
52872;Laerm;40124;52.198;9.902;2023-06-10T12:25:36;68.40;41.82;80.00;;
52872;Laerm;40124;52.198;9.902;2023-06-10T12:28:04;69.82;44.51;80.62;;
52872;Laerm;40124;52.198;9.902;2023-06-10T12:30:30;69.76;45.31;84.01;;
52872;Laerm;40124;52.198;9.902;2023-06-10T12:32:56;68.88;42.88;90.43;;
52872;Laerm;40124;52.198;9.902;2023-06-10T12:35:22;68.40;42.65;78.41;;
52872;Laerm;40124;52.198;9.902;2023-06-10T12:38:02;68.84;42.93;86.66;;
52872;Laerm;40124;52.198;9.902;2023-06-10T12:40:32;68.44;41.46;80.73;;
52872;Laerm;40124;52.198;9.902;2023-06-10T12:42:58;69.63;44.73;82.61;;
52872;Laerm;40124;52.198;9.902;2023-06-10T12:45:33;68.93;43.14;80.26;;
52872;Laerm;40124;52.198;9.902;2023-06-10T12:48:17;68.15;42.90;79.40;;
52872;Laerm;40124;52.198;9.902;2023-06-10T12:50:43;67.17;43.55;83.39;;
52872;Laerm;40124;52.198;9.902;2023-06-10T12:53:08;69.26;45.63;79.32;;
52872;Laerm;40124;52.198;9.902;2023-06-10T12:55:34;67.82;45.36;80.82;;
52872;Laerm;40124;52.198;9.902;2023-06-10T12:58:00;69.49;42.98;82.95;;
52872;Laerm;40124;52.198;9.902;2023-06-10T13:00:26;68.95;43.58;79.93;;
52872;Laerm;40124;52.198;9.902;2023-06-10T13:02:54;70.10;42.59;81.83;;
52872;Laerm;40124;52.198;9.902;2023-06-10T13:05:19;69.47;42.47;81.74;;
52872;Laerm;40124;52.198;9.902;2023-06-10T13:07:45;68.61;43.81;88.96;;
52872;Laerm;40124;52.198;9.902;2023-06-10T13:10:10;67.26;42.76;81.01;;
52872;Laerm;40124;52.198;9.902;2023-06-10T13:12:35;69.09;49.04;81.65;;
52872;Laerm;40124;52.198;9.902;2023-06-10T13:15:01;72.21;47.65;89.90;;
52872;Laerm;40124;52.198;9.902;2023-06-10T13:17:27;68.95;45.86;80.77;;
52872;Laerm;40124;52.198;9.902;2023-06-10T13:19:52;68.57;44.31;80.97;;
52872;Laerm;40124;52.198;9.902;2023-06-10T13:22:18;68.80;45.39;80.75;;
52872;Laerm;40124;52.198;9.902;2023-06-10T13:24:45;67.68;44.15;80.23;;
52872;Laerm;40124;52.198;9.902;2023-06-10T13:27:10;76.09;44.11;94.72;;
52872;Laerm;40124;52.198;9.902;2023-06-10T13:29:35;68.43;45.27;80.63;;
52872;Laerm;40124;52.198;9.902;2023-06-10T13:32:00;69.59;46.02;82.83;;
52872;Laerm;40124;52.198;9.902;2023-06-10T13:34:25;69.62;46.20;80.36;;
52872;Laerm;40124;52.198;9.902;2023-06-10T13:36:50;66.69;44.76;79.45;;
52872;Laerm;40124;52.198;9.902;2023-06-10T13:39:15;69.33;44.12;79.49;;
52872;Laerm;40124;52.198;9.902;2023-06-10T13:41:41;69.85;44.51;81.44;;
52872;Laerm;40124;52.198;9.902;2023-06-10T13:44:06;68.55;44.94;79.37;;
52872;Laerm;40124;52.198;9.902;2023-06-10T13:46:31;67.99;44.31;81.09;;
52872;Laerm;40124;52.198;9.902;2023-06-10T13:48:57;69.67;45.04;83.99;;
52872;Laerm;40124;52.198;9.902;2023-06-10T13:51:22;69.94;45.30;85.00;;
52872;Laerm;40124;52.198;9.902;2023-06-10T13:53:47;66.18;40.23;78.03;;
52872;Laerm;40124;52.198;9.902;2023-06-10T13:56:12;68.36;43.34;79.93;;